sensor_id;sensor_type;location;lat;lon;timestamp;temperature;humidity
20463;DHT22;10390;53.566;9.980;2023-02-22T00:00:21;23.90;1.00
20463;DHT22;10390;53.566;9.980;2023-02-22T00:03:01;23.80;1.00
20463;DHT22;10390;53.566;9.980;2023-02-22T00:05:27;23.80;1.00
20463;DHT22;10390;53.566;9.980;2023-02-22T00:07:53;23.80;1.00
20463;DHT22;10390;53.566;9.980;2023-02-22T00:10:23;23.70;1.00
20463;DHT22;10390;53.566;9.980;2023-02-22T00:12:51;23.70;1.00
20463;DHT22;10390;53.566;9.980;2023-02-22T00:15:19;23.70;1.00
20463;DHT22;10390;53.566;9.980;2023-02-22T00:17:45;23.70;1.00
20463;DHT22;10390;53.566;9.980;2023-02-22T00:20:12;23.70;1.00
20463;DHT22;10390;53.566;9.980;2023-02-22T00:22:46;23.60;1.00
20463;DHT22;10390;53.566;9.980;2023-02-22T00:25:13;23.70;1.00
20463;DHT22;10390;53.566;9.980;2023-02-22T00:27:39;23.70;1.00
20463;DHT22;10390;53.566;9.980;2023-02-22T00:30:06;23.70;1.00
20463;DHT22;10390;53.566;9.980;2023-02-22T00:32:34;23.70;1.00
20463;DHT22;10390;53.566;9.980;2023-02-22T00:34:59;23.80;1.00
20463;DHT22;10390;53.566;9.980;2023-02-22T00:37:25;23.80;1.00
20463;DHT22;10390;53.566;9.980;2023-02-22T00:39:51;23.80;1.00
20463;DHT22;10390;53.566;9.980;2023-02-22T00:42:17;23.80;1.00
20463;DHT22;10390;53.566;9.980;2023-02-22T00:44:43;23.90;1.00
20463;DHT22;10390;53.566;9.980;2023-02-22T00:47:09;23.80;1.00
20463;DHT22;10390;53.566;9.980;2023-02-22T00:49:36;23.90;1.00
20463;DHT22;10390;53.566;9.980;2023-02-22T00:52:02;23.90;1.00
20463;DHT22;10390;53.566;9.980;2023-02-22T00:54:29;23.90;1.00
20463;DHT22;10390;53.566;9.980;2023-02-22T00:56:54;23.90;1.00
20463;DHT22;10390;53.566;9.980;2023-02-22T00:59:20;23.90;1.00
20463;DHT22;10390;53.566;9.980;2023-02-22T01:01:46;23.90;1.00
20463;DHT22;10390;53.566;9.980;2023-02-22T01:04:11;23.90;1.00
20463;DHT22;10390;53.566;9.980;2023-02-22T01:06:37;24.00;1.00
20463;DHT22;10390;53.566;9.980;2023-02-22T01:09:03;23.90;1.00
20463;DHT22;10390;53.566;9.980;2023-02-22T01:11:29;23.90;1.00
20463;DHT22;10390;53.566;9.980;2023-02-22T01:13:55;23.90;1.00
20463;DHT22;10390;53.566;9.980;2023-02-22T01:16:22;23.90;1.00
20463;DHT22;10390;53.566;9.980;2023-02-22T01:18:48;23.90;1.00
20463;DHT22;10390;53.566;9.980;2023-02-22T01:21:14;23.80;1.00
20463;DHT22;10390;53.566;9.980;2023-02-22T01:23:39;23.80;1.00
20463;DHT22;10390;53.566;9.980;2023-02-22T01:26:05;23.80;1.00
20463;DHT22;10390;53.566;9.980;2023-02-22T01:28:31;23.70;1.00
20463;DHT22;10390;53.566;9.980;2023-02-22T01:30:57;23.70;1.00
20463;DHT22;10390;53.566;9.980;2023-02-22T01:33:23;23.70;1.00
20463;DHT22;10390;53.566;9.980;2023-02-22T01:35:50;23.70;1.00
20463;DHT22;10390;53.566;9.980;2023-02-22T01:38:16;23.60;1.00
20463;DHT22;10390;53.566;9.980;2023-02-22T01:40:46;23.60;1.00
20463;DHT22;10390;53.566;9.980;2023-02-22T01:45:58;23.60;1.00
20463;DHT22;10390;53.566;9.980;2023-02-22T01:48:31;23.60;1.00
20463;DHT22;10390;53.566;9.980;2023-02-22T01:53:42;23.70;1.00
20463;DHT22;10390;53.566;9.980;2023-02-22T01:56:09;23.70;1.00
20463;DHT22;10390;53.566;9.980;2023-02-22T01:58:38;23.70;1.00
20463;DHT22;10390;53.566;9.980;2023-02-22T02:01:05;23.80;1.00
20463;DHT22;10390;53.566;9.980;2023-02-22T02:03:33;23.80;1.00
20463;DHT22;10390;53.566;9.980;2023-02-22T02:06:02;23.80;1.00
20463;DHT22;10390;53.566;9.980;2023-02-22T02:08:45;23.90;1.00
20463;DHT22;10390;53.566;9.980;2023-02-22T02:11:15;23.80;1.00
20463;DHT22;10390;53.566;9.980;2023-02-22T02:13:42;23.90;1.00
20463;DHT22;10390;53.566;9.980;2023-02-22T02:16:08;23.90;1.00
20463;DHT22;10390;53.566;9.980;2023-02-22T02:18:34;23.90;1.00
20463;DHT22;10390;53.566;9.980;2023-02-22T02:34:32;23.90;1.00
20463;DHT22;10390;53.566;9.980;2023-02-22T02:37:02;23.90;1.00
20463;DHT22;10390;53.566;9.980;2023-02-22T02:39:58;23.80;1.00
20463;DHT22;10390;53.566;9.980;2023-02-22T02:42:33;23.80;1.00
20463;DHT22;10390;53.566;9.980;2023-02-22T02:45:04;23.80;1.00
20463;DHT22;10390;53.566;9.980;2023-02-22T02:47:38;23.70;1.00
20463;DHT22;10390;53.566;9.980;2023-02-22T02:50:08;23.70;1.00
20463;DHT22;10390;53.566;9.980;2023-02-22T02:52:34;23.70;1.00
20463;DHT22;10390;53.566;9.980;2023-02-22T02:55:03;23.60;1.00
20463;DHT22;10390;53.566;9.980;2023-02-22T02:57:29;23.60;1.00
20463;DHT22;10390;53.566;9.980;2023-02-22T02:59:54;23.60;1.00
20463;DHT22;10390;53.566;9.980;2023-02-22T03:02:39;23.60;1.00
20463;DHT22;10390;53.566;9.980;2023-02-22T03:05:42;23.60;1.00
20463;DHT22;10390;53.566;9.980;2023-02-22T03:11:15;23.60;1.00
20463;DHT22;10390;53.566;9.980;2023-02-22T03:19:19;23.70;1.00
20463;DHT22;10390;53.566;9.980;2023-02-22T03:22:38;23.70;1.00
20463;DHT22;10390;53.566;9.980;2023-02-22T03:25:07;23.70;1.00
20463;DHT22;10390;53.566;9.980;2023-02-22T03:27:44;23.70;1.00
20463;DHT22;10390;53.566;9.980;2023-02-22T03:30:31;23.70;1.00
20463;DHT22;10390;53.566;9.980;2023-02-22T03:33:04;23.80;1.00
20463;DHT22;10390;53.566;9.980;2023-02-22T03:35:36;23.80;1.00
20463;DHT22;10390;53.566;9.980;2023-02-22T03:38:05;23.80;1.00
20463;DHT22;10390;53.566;9.980;2023-02-22T03:40:37;23.80;1.00
20463;DHT22;10390;53.566;9.980;2023-02-22T03:43:09;23.80;1.00
20463;DHT22;10390;53.566;9.980;2023-02-22T03:45:40;23.80;1.00
20463;DHT22;10390;53.566;9.980;2023-02-22T03:50:45;23.80;1.00
20463;DHT22;10390;53.566;9.980;2023-02-22T03:53:12;23.80;1.00
20463;DHT22;10390;53.566;9.980;2023-02-22T03:55:38;23.80;1.00
20463;DHT22;10390;53.566;9.980;2023-02-22T03:58:09;23.80;1.00
20463;DHT22;10390;53.566;9.980;2023-02-22T04:00:36;23.80;1.00
20463;DHT22;10390;53.566;9.980;2023-02-22T04:03:02;23.80;1.00
20463;DHT22;10390;53.566;9.980;2023-02-22T04:05:28;23.80;1.00
20463;DHT22;10390;53.566;9.980;2023-02-22T04:07:55;23.70;1.00
20463;DHT22;10390;53.566;9.980;2023-02-22T04:10:22;23.70;1.00
20463;DHT22;10390;53.566;9.980;2023-02-22T04:12:48;23.60;1.00
20463;DHT22;10390;53.566;9.980;2023-02-22T04:15:18;23.60;1.00
20463;DHT22;10390;53.566;9.980;2023-02-22T04:17:44;23.60;1.00
20463;DHT22;10390;53.566;9.980;2023-02-22T04:20:10;23.60;1.00
20463;DHT22;10390;53.566;9.980;2023-02-22T04:22:38;23.60;1.00
20463;DHT22;10390;53.566;9.980;2023-02-22T04:25:05;23.60;1.00
20463;DHT22;10390;53.566;9.980;2023-02-22T04:27:31;23.60;1.00
20463;DHT22;10390;53.566;9.980;2023-02-22T04:29:56;23.60;1.00
20463;DHT22;10390;53.566;9.980;2023-02-22T04:32:22;23.60;1.00
20463;DHT22;10390;53.566;9.980;2023-02-22T04:34:48;23.60;1.00
20463;DHT22;10390;53.566;9.980;2023-02-22T04:37:13;23.60;1.00
20463;DHT22;10390;53.566;9.980;2023-02-22T04:39:39;23.70;1.00
20463;DHT22;10390;53.566;9.980;2023-02-22T04:42:05;23.70;1.00
20463;DHT22;10390;53.566;9.980;2023-02-22T04:44:31;23.70;1.00
20463;DHT22;10390;53.566;9.980;2023-02-22T04:46:57;23.70;1.00
20463;DHT22;10390;53.566;9.980;2023-02-22T04:49:22;23.80;1.00
20463;DHT22;10390;53.566;9.980;2023-02-22T04:51:48;23.80;1.00
20463;DHT22;10390;53.566;9.980;2023-02-22T04:54:14;23.80;1.00
20463;DHT22;10390;53.566;9.980;2023-02-22T04:56:42;23.80;1.00
20463;DHT22;10390;53.566;9.980;2023-02-22T04:59:09;23.80;1.00
20463;DHT22;10390;53.566;9.980;2023-02-22T05:01:35;23.80;1.00
20463;DHT22;10390;53.566;9.980;2023-02-22T05:04:03;23.80;1.00
20463;DHT22;10390;53.566;9.980;2023-02-22T05:06:29;23.80;1.00
20463;DHT22;10390;53.566;9.980;2023-02-22T05:08:54;23.80;1.00
20463;DHT22;10390;53.566;9.980;2023-02-22T05:11:20;23.80;1.00
20463;DHT22;10390;53.566;9.980;2023-02-22T05:13:46;23.80;1.00
20463;DHT22;10390;53.566;9.980;2023-02-22T05:16:12;23.80;1.00
20463;DHT22;10390;53.566;9.980;2023-02-22T05:18:37;23.80;1.00
20463;DHT22;10390;53.566;9.980;2023-02-22T05:21:03;23.80;1.00
20463;DHT22;10390;53.566;9.980;2023-02-22T05:23:29;23.70;1.00
20463;DHT22;10390;53.566;9.980;2023-02-22T05:25:54;23.70;1.00
20463;DHT22;10390;53.566;9.980;2023-02-22T05:28:20;23.70;1.00
20463;DHT22;10390;53.566;9.980;2023-02-22T05:30:46;23.60;1.00
20463;DHT22;10390;53.566;9.980;2023-02-22T05:33:11;23.60;1.00
20463;DHT22;10390;53.566;9.980;2023-02-22T05:35:37;23.60;1.00
20463;DHT22;10390;53.566;9.980;2023-02-22T05:38:04;23.60;1.00
20463;DHT22;10390;53.566;9.980;2023-02-22T05:40:30;23.50;1.00
20463;DHT22;10390;53.566;9.980;2023-02-22T05:42:57;23.50;1.00
20463;DHT22;10390;53.566;9.980;2023-02-22T05:45:24;23.60;1.00
20463;DHT22;10390;53.566;9.980;2023-02-22T05:47:51;23.60;1.00
20463;DHT22;10390;53.566;9.980;2023-02-22T05:50:18;23.50;1.00
20463;DHT22;10390;53.566;9.980;2023-02-22T05:52:44;23.60;1.00
20463;DHT22;10390;53.566;9.980;2023-02-22T05:55:12;23.60;1.00
20463;DHT22;10390;53.566;9.980;2023-02-22T05:57:41;23.60;1.00
20463;DHT22;10390;53.566;9.980;2023-02-22T06:00:08;23.60;1.00
20463;DHT22;10390;53.566;9.980;2023-02-22T06:02:34;23.70;1.00
20463;DHT22;10390;53.566;9.980;2023-02-22T06:04:59;23.70;1.00
20463;DHT22;10390;53.566;9.980;2023-02-22T06:07:25;23.70;1.00
20463;DHT22;10390;53.566;9.980;2023-02-22T06:09:51;23.70;1.00
20463;DHT22;10390;53.566;9.980;2023-02-22T06:12:18;23.80;1.00
20463;DHT22;10390;53.566;9.980;2023-02-22T06:14:43;23.80;1.00
20463;DHT22;10390;53.566;9.980;2023-02-22T06:17:13;23.80;1.00
20463;DHT22;10390;53.566;9.980;2023-02-22T06:19:39;23.80;1.00
20463;DHT22;10390;53.566;9.980;2023-02-22T06:22:06;23.80;1.00
20463;DHT22;10390;53.566;9.980;2023-02-22T06:24:32;23.80;1.00
20463;DHT22;10390;53.566;9.980;2023-02-22T06:27:00;23.70;1.00
20463;DHT22;10390;53.566;9.980;2023-02-22T06:29:27;23.80;1.00
20463;DHT22;10390;53.566;9.980;2023-02-22T06:31:53;23.80;1.00
20463;DHT22;10390;53.566;9.980;2023-02-22T06:34:19;23.70;1.00
20463;DHT22;10390;53.566;9.980;2023-02-22T06:36:47;23.80;1.00
20463;DHT22;10390;53.566;9.980;2023-02-22T06:39:13;23.70;1.00
20463;DHT22;10390;53.566;9.980;2023-02-22T06:41:41;23.80;1.00
20463;DHT22;10390;53.566;9.980;2023-02-22T06:44:07;23.70;1.00
20463;DHT22;10390;53.566;9.980;2023-02-22T06:46:33;23.70;1.00
20463;DHT22;10390;53.566;9.980;2023-02-22T06:48:59;23.60;1.00
20463;DHT22;10390;53.566;9.980;2023-02-22T06:51:25;23.60;1.00
20463;DHT22;10390;53.566;9.980;2023-02-22T06:53:51;23.60;1.00
20463;DHT22;10390;53.566;9.980;2023-02-22T06:56:18;23.50;1.00
20463;DHT22;10390;53.566;9.980;2023-02-22T06:58:44;23.50;1.00
20463;DHT22;10390;53.566;9.980;2023-02-22T08:31:23;18.90;1.00
20463;DHT22;10390;53.566;9.980;2023-02-22T08:33:49;20.70;1.00
20463;DHT22;10390;53.566;9.980;2023-02-22T08:36:14;21.00;1.00
20463;DHT22;10390;53.566;9.980;2023-02-22T08:38:40;21.20;1.00
20463;DHT22;10390;53.566;9.980;2023-02-22T08:41:06;21.50;1.00
20463;DHT22;10390;53.566;9.980;2023-02-22T08:43:31;21.60;1.00
20463;DHT22;10390;53.566;9.980;2023-02-22T08:45:57;21.80;1.00
20463;DHT22;10390;53.566;9.980;2023-02-22T08:48:22;22.00;1.00
20463;DHT22;10390;53.566;9.980;2023-02-22T08:50:48;22.10;1.00
20463;DHT22;10390;53.566;9.980;2023-02-22T08:53:15;22.20;1.00
20463;DHT22;10390;53.566;9.980;2023-02-22T08:55:41;22.40;1.00
20463;DHT22;10390;53.566;9.980;2023-02-22T08:58:07;22.50;1.00
20463;DHT22;10390;53.566;9.980;2023-02-22T09:00:38;22.60;1.00
20463;DHT22;10390;53.566;9.980;2023-02-22T09:03:10;22.70;1.00
20463;DHT22;10390;53.566;9.980;2023-02-22T09:05:37;22.80;1.00
20463;DHT22;10390;53.566;9.980;2023-02-22T09:08:03;23.00;1.00
20463;DHT22;10390;53.566;9.980;2023-02-22T09:10:31;23.00;1.00
20463;DHT22;10390;53.566;9.980;2023-02-22T09:12:57;23.10;1.00
20463;DHT22;10390;53.566;9.980;2023-02-22T09:15:25;23.20;1.00
20463;DHT22;10390;53.566;9.980;2023-02-22T09:17:52;23.30;1.00
20463;DHT22;10390;53.566;9.980;2023-02-22T09:20:20;23.30;1.00
20463;DHT22;10390;53.566;9.980;2023-02-22T09:22:46;23.40;1.00
20463;DHT22;10390;53.566;9.980;2023-02-22T09:25:12;23.40;1.00
20463;DHT22;10390;53.566;9.980;2023-02-22T09:27:38;23.40;1.00
20463;DHT22;10390;53.566;9.980;2023-02-22T09:30:05;23.50;1.00
20463;DHT22;10390;53.566;9.980;2023-02-22T09:32:30;23.50;1.00
20463;DHT22;10390;53.566;9.980;2023-02-22T09:34:56;23.50;1.00
20463;DHT22;10390;53.566;9.980;2023-02-22T09:37:22;23.60;1.00
20463;DHT22;10390;53.566;9.980;2023-02-22T09:39:48;23.60;1.00
20463;DHT22;10390;53.566;9.980;2023-02-22T09:42:24;23.60;1.00
20463;DHT22;10390;53.566;9.980;2023-02-22T09:47:39;23.60;1.00
20463;DHT22;10390;53.566;9.980;2023-02-22T09:50:19;23.60;1.00
20463;DHT22;10390;53.566;9.980;2023-02-22T09:52:57;23.60;1.00
20463;DHT22;10390;53.566;9.980;2023-02-22T10:00:46;23.50;1.00
20463;DHT22;10390;53.566;9.980;2023-02-22T10:03:35;23.50;1.00
20463;DHT22;10390;53.566;9.980;2023-02-22T10:06:12;23.40;1.00
20463;DHT22;10390;53.566;9.980;2023-02-22T10:08:39;23.40;1.00
20463;DHT22;10390;53.566;9.980;2023-02-22T10:14:00;23.40;1.00
20463;DHT22;10390;53.566;9.980;2023-02-22T10:22:12;23.40;1.00
20463;DHT22;10390;53.566;9.980;2023-02-22T10:27:18;23.60;1.00
20463;DHT22;10390;53.566;9.980;2023-02-22T10:29:52;23.60;1.00
20463;DHT22;10390;53.566;9.980;2023-02-22T10:32:28;23.60;1.00
20463;DHT22;10390;53.566;9.980;2023-02-22T10:34:57;23.70;1.00
20463;DHT22;10390;53.566;9.980;2023-02-22T10:37:27;23.70;1.00
20463;DHT22;10390;53.566;9.980;2023-02-22T10:40:17;23.70;1.00
20463;DHT22;10390;53.566;9.980;2023-02-22T10:42:44;23.80;1.00
20463;DHT22;10390;53.566;9.980;2023-02-22T10:45:38;23.80;1.00
20463;DHT22;10390;53.566;9.980;2023-02-22T10:48:09;23.80;1.00
20463;DHT22;10390;53.566;9.980;2023-02-22T10:50:39;23.80;1.00
20463;DHT22;10390;53.566;9.980;2023-02-22T10:53:06;23.90;1.00
20463;DHT22;10390;53.566;9.980;2023-02-22T10:55:32;23.90;1.00
20463;DHT22;10390;53.566;9.980;2023-02-22T10:58:04;23.90;1.00
20463;DHT22;10390;53.566;9.980;2023-02-22T11:00:38;24.00;1.00
20463;DHT22;10390;53.566;9.980;2023-02-22T11:03:21;24.00;1.00
20463;DHT22;10390;53.566;9.980;2023-02-22T11:05:48;24.00;1.00
20463;DHT22;10390;53.566;9.980;2023-02-22T11:10:51;24.10;1.00
20463;DHT22;10390;53.566;9.980;2023-02-22T11:15:59;24.10;1.00
20463;DHT22;10390;53.566;9.980;2023-02-22T11:18:30;24.20;1.00
20463;DHT22;10390;53.566;9.980;2023-02-22T11:21:07;24.20;1.00
20463;DHT22;10390;53.566;9.980;2023-02-22T11:23:36;24.20;1.00
20463;DHT22;10390;53.566;9.980;2023-02-22T11:26:09;24.20;1.00
20463;DHT22;10390;53.566;9.980;2023-02-22T11:28:50;24.30;1.00
20463;DHT22;10390;53.566;9.980;2023-02-22T11:31:26;24.30;1.00
20463;DHT22;10390;53.566;9.980;2023-02-22T11:33:58;24.30;1.00
20463;DHT22;10390;53.566;9.980;2023-02-22T11:36:31;24.40;1.00
20463;DHT22;10390;53.566;9.980;2023-02-22T11:38:58;24.40;1.00
20463;DHT22;10390;53.566;9.980;2023-02-22T11:41:29;24.40;1.00
20463;DHT22;10390;53.566;9.980;2023-02-22T11:44:24;24.40;1.00
20463;DHT22;10390;53.566;9.980;2023-02-22T11:46:51;24.50;1.00
20463;DHT22;10390;53.566;9.980;2023-02-22T11:49:22;24.50;1.00
20463;DHT22;10390;53.566;9.980;2023-02-22T11:52:19;24.50;1.00
20463;DHT22;10390;53.566;9.980;2023-02-22T12:00:05;24.50;1.00
20463;DHT22;10390;53.566;9.980;2023-02-22T12:08:19;24.50;1.00
20463;DHT22;10390;53.566;9.980;2023-02-22T12:11:11;24.50;1.00
20463;DHT22;10390;53.566;9.980;2023-02-22T12:16:30;24.40;1.00
20463;DHT22;10390;53.566;9.980;2023-02-22T12:19:26;24.40;1.00
20463;DHT22;10390;53.566;9.980;2023-02-22T12:21:59;24.30;1.00
20463;DHT22;10390;53.566;9.980;2023-02-22T12:24:33;24.30;1.00
20463;DHT22;10390;53.566;9.980;2023-02-22T12:27:05;24.30;1.00
20463;DHT22;10390;53.566;9.980;2023-02-22T12:32:44;24.30;1.00
20463;DHT22;10390;53.566;9.980;2023-02-22T12:35:24;24.30;1.00
20463;DHT22;10390;53.566;9.980;2023-02-22T12:38:17;24.30;1.00
20463;DHT22;10390;53.566;9.980;2023-02-22T12:40:54;24.30;1.00
20463;DHT22;10390;53.566;9.980;2023-02-22T12:43:45;24.30;1.00
20463;DHT22;10390;53.566;9.980;2023-02-22T12:54:15;24.40;1.00
20463;DHT22;10390;53.566;9.980;2023-02-22T12:59:43;24.40;1.00
20463;DHT22;10390;53.566;9.980;2023-02-22T13:04:46;24.40;1.00
20463;DHT22;10390;53.566;9.980;2023-02-22T13:15:50;24.40;1.00
20463;DHT22;10390;53.566;9.980;2023-02-22T13:19:25;24.40;1.00
20463;DHT22;10390;53.566;9.980;2023-02-22T13:21:44;24.40;1.00
20463;DHT22;10390;53.566;9.980;2023-02-22T13:24:25;24.40;1.00
20463;DHT22;10390;53.566;9.980;2023-02-22T13:27:05;24.30;1.00
20463;DHT22;10390;53.566;9.980;2023-02-22T13:29:47;24.30;1.00
20463;DHT22;10390;53.566;9.980;2023-02-22T13:35:15;24.30;1.00
20463;DHT22;10390;53.566;9.980;2023-02-22T13:49:24;24.20;1.00
20463;DHT22;10390;53.566;9.980;2023-02-22T13:52:02;24.10;1.00
20463;DHT22;10390;53.566;9.980;2023-02-22T13:54:44;24.20;1.00
20463;DHT22;10390;53.566;9.980;2023-02-22T13:57:23;24.20;1.00
20463;DHT22;10390;53.566;9.980;2023-02-22T14:08:04;24.20;1.00
20463;DHT22;10390;53.566;9.980;2023-02-22T14:10:44;24.20;1.00
20463;DHT22;10390;53.566;9.980;2023-02-22T14:13:15;24.30;1.00
20463;DHT22;10390;53.566;9.980;2023-02-22T14:18:41;24.30;1.00
20463;DHT22;10390;53.566;9.980;2023-02-22T14:21:08;24.30;1.00
20463;DHT22;10390;53.566;9.980;2023-02-22T14:26:26;24.20;1.00
20463;DHT22;10390;53.566;9.980;2023-02-22T14:29:01;24.20;1.00
20463;DHT22;10390;53.566;9.980;2023-02-22T14:34:40;24.20;1.00
20463;DHT22;10390;53.566;9.980;2023-02-22T14:37:24;24.20;1.00
20463;DHT22;10390;53.566;9.980;2023-02-22T14:42:21;24.20;1.00
20463;DHT22;10390;53.566;9.980;2023-02-22T14:44:49;24.10;1.00
20463;DHT22;10390;53.566;9.980;2023-02-22T14:47:22;24.00;1.00
20463;DHT22;10390;53.566;9.980;2023-02-22T14:50:04;24.00;1.00
20463;DHT22;10390;53.566;9.980;2023-02-22T14:52:35;24.00;1.00
20463;DHT22;10390;53.566;9.980;2023-02-22T14:55:23;23.90;1.00
20463;DHT22;10390;53.566;9.980;2023-02-22T14:58:15;23.90;1.00
20463;DHT22;10390;53.566;9.980;2023-02-22T15:00:49;23.90;1.00
20463;DHT22;10390;53.566;9.980;2023-02-22T15:03:27;23.90;1.00
20463;DHT22;10390;53.566;9.980;2023-02-22T15:06:06;23.90;1.00
20463;DHT22;10390;53.566;9.980;2023-02-22T15:08:39;23.90;1.00
20463;DHT22;10390;53.566;9.980;2023-02-22T15:11:25;23.90;1.00
20463;DHT22;10390;53.566;9.980;2023-02-22T15:13:56;24.00;1.00
20463;DHT22;10390;53.566;9.980;2023-02-22T15:16:24;24.00;1.00
20463;DHT22;10390;53.566;9.980;2023-02-22T15:18:58;24.00;1.00
20463;DHT22;10390;53.566;9.980;2023-02-22T15:21:27;24.00;1.00
20463;DHT22;10390;53.566;9.980;2023-02-22T15:24:02;24.00;1.00
20463;DHT22;10390;53.566;9.980;2023-02-22T15:26:41;24.00;1.00
20463;DHT22;10390;53.566;9.980;2023-02-22T15:29:12;24.00;1.00
20463;DHT22;10390;53.566;9.980;2023-02-22T15:31:39;24.00;1.00
20463;DHT22;10390;53.566;9.980;2023-02-22T15:36:45;24.10;1.00
20463;DHT22;10390;53.566;9.980;2023-02-22T15:39:26;24.10;1.00
20463;DHT22;10390;53.566;9.980;2023-02-22T15:42:07;24.10;1.00
20463;DHT22;10390;53.566;9.980;2023-02-22T15:44:41;24.10;1.00
20463;DHT22;10390;53.566;9.980;2023-02-22T15:47:18;24.20;1.00
20463;DHT22;10390;53.566;9.980;2023-02-22T15:49:44;24.10;1.00
20463;DHT22;10390;53.566;9.980;2023-02-22T15:52:28;24.20;1.00
20463;DHT22;10390;53.566;9.980;2023-02-22T15:54:56;24.10;1.00
20463;DHT22;10390;53.566;9.980;2023-02-22T15:57:22;24.10;1.00
20463;DHT22;10390;53.566;9.980;2023-02-22T15:59:51;24.10;1.00
20463;DHT22;10390;53.566;9.980;2023-02-22T16:02:37;24.00;1.00
20463;DHT22;10390;53.566;9.980;2023-02-22T16:05:09;24.00;1.00
20463;DHT22;10390;53.566;9.980;2023-02-22T16:07:42;24.00;1.00
20463;DHT22;10390;53.566;9.980;2023-02-22T16:10:20;23.90;1.00
20463;DHT22;10390;53.566;9.980;2023-02-22T16:12:47;23.90;1.00
20463;DHT22;10390;53.566;9.980;2023-02-22T16:15:17;23.80;1.00
20463;DHT22;10390;53.566;9.980;2023-02-22T16:17:43;23.80;1.00
20463;DHT22;10390;53.566;9.980;2023-02-22T16:22:40;23.80;1.00
20463;DHT22;10390;53.566;9.980;2023-02-22T16:27:54;23.80;1.00
20463;DHT22;10390;53.566;9.980;2023-02-22T16:30:31;23.80;1.00
20463;DHT22;10390;53.566;9.980;2023-02-22T16:32:57;23.90;1.00
20463;DHT22;10390;53.566;9.980;2023-02-22T16:35:25;23.80;1.00
20463;DHT22;10390;53.566;9.980;2023-02-22T16:40:33;24.00;1.00
20463;DHT22;10390;53.566;9.980;2023-02-22T16:43:10;24.00;1.00
20463;DHT22;10390;53.566;9.980;2023-02-22T16:45:36;24.00;1.00
20463;DHT22;10390;53.566;9.980;2023-02-22T16:48:33;24.00;1.00
20463;DHT22;10390;53.566;9.980;2023-02-22T16:51:14;24.00;1.00
20463;DHT22;10390;53.566;9.980;2023-02-22T16:53:41;24.00;1.00
20463;DHT22;10390;53.566;9.980;2023-02-22T16:56:08;24.00;1.00
20463;DHT22;10390;53.566;9.980;2023-02-22T16:58:37;24.00;1.00
20463;DHT22;10390;53.566;9.980;2023-02-22T17:01:03;24.00;1.00
20463;DHT22;10390;53.566;9.980;2023-02-22T17:03:29;24.00;1.00
20463;DHT22;10390;53.566;9.980;2023-02-22T17:05:54;24.00;1.00
20463;DHT22;10390;53.566;9.980;2023-02-22T17:08:20;24.00;1.00
20463;DHT22;10390;53.566;9.980;2023-02-22T17:10:47;24.00;1.00
20463;DHT22;10390;53.566;9.980;2023-02-22T17:13:18;24.00;1.00
20463;DHT22;10390;53.566;9.980;2023-02-22T17:15:45;24.00;1.00
20463;DHT22;10390;53.566;9.980;2023-02-22T17:18:13;23.90;1.00
20463;DHT22;10390;53.566;9.980;2023-02-22T17:20:41;23.90;1.00
20463;DHT22;10390;53.566;9.980;2023-02-22T17:23:08;23.90;1.00
20463;DHT22;10390;53.566;9.980;2023-02-22T17:25:43;23.80;1.00
20463;DHT22;10390;53.566;9.980;2023-02-22T17:28:09;23.70;1.00
20463;DHT22;10390;53.566;9.980;2023-02-22T17:30:35;23.70;1.00
20463;DHT22;10390;53.566;9.980;2023-02-22T17:33:03;23.70;1.00
20463;DHT22;10390;53.566;9.980;2023-02-22T17:35:32;23.70;1.00
20463;DHT22;10390;53.566;9.980;2023-02-22T17:37:58;23.70;1.00
20463;DHT22;10390;53.566;9.980;2023-02-22T17:40:31;23.70;1.00
20463;DHT22;10390;53.566;9.980;2023-02-22T17:42:56;23.70;1.00
20463;DHT22;10390;53.566;9.980;2023-02-22T17:45:23;23.70;1.00
20463;DHT22;10390;53.566;9.980;2023-02-22T17:47:50;23.70;1.00
20463;DHT22;10390;53.566;9.980;2023-02-22T17:50:20;23.70;1.00
20463;DHT22;10390;53.566;9.980;2023-02-22T17:52:49;23.80;1.00
20463;DHT22;10390;53.566;9.980;2023-02-22T17:55:19;23.80;1.00
20463;DHT22;10390;53.566;9.980;2023-02-22T17:57:45;23.80;1.00
20463;DHT22;10390;53.566;9.980;2023-02-22T18:00:16;23.80;1.00
20463;DHT22;10390;53.566;9.980;2023-02-22T18:02:48;23.90;1.00
20463;DHT22;10390;53.566;9.980;2023-02-22T18:05:14;23.90;1.00
20463;DHT22;10390;53.566;9.980;2023-02-22T18:07:44;24.00;1.00
20463;DHT22;10390;53.566;9.980;2023-02-22T18:10:10;24.00;1.00
20463;DHT22;10390;53.566;9.980;2023-02-22T18:12:37;24.00;1.00
20463;DHT22;10390;53.566;9.980;2023-02-22T18:15:04;24.00;1.00
20463;DHT22;10390;53.566;9.980;2023-02-22T18:17:30;24.00;1.00
20463;DHT22;10390;53.566;9.980;2023-02-22T18:19:56;24.00;1.00
20463;DHT22;10390;53.566;9.980;2023-02-22T18:22:21;24.00;1.00
20463;DHT22;10390;53.566;9.980;2023-02-22T18:24:47;24.00;1.00
20463;DHT22;10390;53.566;9.980;2023-02-22T18:27:13;24.00;1.00
20463;DHT22;10390;53.566;9.980;2023-02-22T18:29:39;24.00;1.00
20463;DHT22;10390;53.566;9.980;2023-02-22T18:32:05;23.90;1.00
20463;DHT22;10390;53.566;9.980;2023-02-22T18:34:36;23.90;1.00
20463;DHT22;10390;53.566;9.980;2023-02-22T18:37:02;23.90;1.00
20463;DHT22;10390;53.566;9.980;2023-02-22T18:39:30;23.80;1.00
20463;DHT22;10390;53.566;9.980;2023-02-22T18:41:59;23.80;1.00
20463;DHT22;10390;53.566;9.980;2023-02-22T18:44:24;23.80;1.00
20463;DHT22;10390;53.566;9.980;2023-02-22T18:46:52;23.70;1.00
20463;DHT22;10390;53.566;9.980;2023-02-22T18:49:18;23.70;1.00
20463;DHT22;10390;53.566;9.980;2023-02-22T18:51:44;23.70;1.00
20463;DHT22;10390;53.566;9.980;2023-02-22T18:54:11;23.60;1.00
20463;DHT22;10390;53.566;9.980;2023-02-22T18:56:37;23.70;1.00
20463;DHT22;10390;53.566;9.980;2023-02-22T18:59:05;23.70;1.00
20463;DHT22;10390;53.566;9.980;2023-02-22T19:01:32;23.70;1.00
20463;DHT22;10390;53.566;9.980;2023-02-22T19:04:03;23.70;1.00
20463;DHT22;10390;53.566;9.980;2023-02-22T19:06:30;23.70;1.00
20463;DHT22;10390;53.566;9.980;2023-02-22T19:08:55;23.70;1.00
20463;DHT22;10390;53.566;9.980;2023-02-22T19:11:25;23.80;1.00
20463;DHT22;10390;53.566;9.980;2023-02-22T19:13:54;23.80;1.00
20463;DHT22;10390;53.566;9.980;2023-02-22T19:16:22;23.80;1.00
20463;DHT22;10390;53.566;9.980;2023-02-22T19:18:49;23.90;1.00
20463;DHT22;10390;53.566;9.980;2023-02-22T19:21:17;23.90;1.00
20463;DHT22;10390;53.566;9.980;2023-02-22T19:23:43;23.80;1.00
20463;DHT22;10390;53.566;9.980;2023-02-22T19:26:14;23.90;1.00
20463;DHT22;10390;53.566;9.980;2023-02-22T19:28:45;23.90;1.00
20463;DHT22;10390;53.566;9.980;2023-02-22T19:31:25;23.90;1.00
20463;DHT22;10390;53.566;9.980;2023-02-22T19:33:54;23.90;1.00
20463;DHT22;10390;53.566;9.980;2023-02-22T19:36:21;23.90;1.00
20463;DHT22;10390;53.566;9.980;2023-02-22T19:38:50;23.90;1.00
20463;DHT22;10390;53.566;9.980;2023-02-22T19:41:19;23.90;1.00
20463;DHT22;10390;53.566;9.980;2023-02-22T19:43:46;23.90;1.00
20463;DHT22;10390;53.566;9.980;2023-02-22T19:46:13;23.90;1.00
20463;DHT22;10390;53.566;9.980;2023-02-22T19:48:39;23.90;1.00
20463;DHT22;10390;53.566;9.980;2023-02-22T19:51:10;23.90;1.00